createdAt,value
2018-07-01T00:05:58.318Z,46.80
2018-07-01T00:08:27.107Z,46.80
2018-07-01T00:10:56.366Z,47.00
2018-07-01T00:13:25.065Z,47.30
2018-07-01T00:18:22.225Z,47.60
2018-07-01T00:20:50.938Z,47.80
2018-07-01T00:23:19.634Z,47.90
2018-07-01T00:25:48.341Z,48.10
2018-07-01T00:30:45.457Z,48.40
2018-07-01T00:33:14.185Z,48.50
2018-07-01T00:35:42.919Z,48.60
2018-07-01T00:38:11.610Z,48.60
2018-07-01T00:40:40.300Z,48.80
2018-07-01T00:43:09.107Z,49.00
2018-07-01T00:45:37.874Z,48.90
2018-07-01T00:48:06.684Z,48.90
2018-07-01T00:50:35.368Z,49.20
2018-07-01T00:53:04.094Z,49.20
2018-07-01T00:58:01.219Z,49.50
2018-07-01T01:00:32.697Z,50.00
2018-07-01T01:03:02.482Z,50.00
2018-07-01T01:05:31.838Z,50.20
2018-07-01T01:08:00.673Z,50.30
2018-07-01T01:10:30.077Z,50.30
2018-07-01T01:12:58.755Z,50.30
2018-07-01T01:15:27.452Z,50.60
2018-07-01T01:17:56.119Z,50.50
2018-07-01T01:20:24.862Z,50.70
2018-07-01T01:25:21.973Z,51.20
2018-07-01T01:27:50.657Z,51.40
2018-07-01T01:30:19.366Z,51.40
2018-07-01T01:37:44.870Z,51.50
2018-07-01T01:40:15.142Z,51.50
2018-07-01T01:42:49.270Z,51.50
2018-07-01T01:45:37.624Z,51.40
2018-07-01T01:48:16.026Z,51.70
2018-07-01T01:50:51.085Z,51.50
2018-07-01T01:53:24.248Z,51.40
2018-07-01T01:56:00.238Z,51.40
2018-07-01T01:58:34.901Z,51.50
2018-07-01T02:03:42.162Z,51.80
2018-07-01T02:06:13.581Z,51.90
2018-07-01T02:08:45.241Z,52.00
2018-07-01T02:11:13.941Z,52.20
2018-07-01T02:13:45.932Z,52.20
2018-07-01T02:16:18.103Z,52.70
2018-07-01T02:18:46.790Z,52.40
2018-07-01T02:21:15.489Z,52.60
2018-07-01T02:23:48.749Z,52.50
2018-07-01T02:28:45.889Z,52.90
2018-07-01T02:31:14.596Z,52.80
2018-07-01T02:33:43.305Z,53.10
2018-07-01T02:36:12.060Z,53.20
2018-07-01T02:38:40.782Z,53.40
2018-07-01T02:41:09.451Z,53.60
2018-07-01T02:46:06.548Z,53.40
2018-07-01T02:48:35.227Z,53.30
2018-07-01T02:51:03.938Z,53.50
2018-07-01T02:53:32.654Z,53.60
2018-07-01T02:58:29.717Z,54.00
2018-07-01T03:00:58.425Z,53.90
2018-07-01T03:03:27.133Z,54.40
2018-07-01T03:05:55.855Z,54.00
2018-07-01T03:10:52.948Z,54.10
2018-07-01T03:13:21.703Z,54.20
2018-07-01T03:15:50.424Z,54.30
2018-07-01T03:18:19.115Z,54.40
2018-07-01T03:20:47.873Z,54.10
2018-07-01T03:23:16.569Z,54.20
2018-07-01T03:25:45.236Z,54.10
2018-07-01T03:28:13.919Z,54.30
2018-07-01T03:30:42.649Z,54.20
2018-07-01T03:38:08.139Z,53.70
2018-07-01T03:40:36.854Z,53.60
2018-07-01T03:43:05.630Z,53.70
2018-07-01T03:48:02.788Z,53.50
2018-07-01T03:50:31.530Z,53.00
2018-07-01T03:57:56.989Z,53.30
2018-07-01T04:00:25.788Z,53.50
2018-07-01T04:02:55.025Z,53.70
2018-07-01T04:05:23.706Z,53.60
2018-07-01T04:07:52.464Z,53.60
2018-07-01T04:10:21.402Z,53.70
2018-07-01T04:12:50.098Z,53.60
2018-07-01T04:20:16.097Z,53.70
2018-07-01T04:22:44.791Z,53.80
2018-07-01T04:25:13.470Z,53.90
2018-07-01T04:27:42.177Z,53.90
2018-07-01T04:32:39.269Z,53.60
2018-07-01T04:37:36.497Z,53.10
2018-07-01T04:40:05.234Z,53.10
2018-07-01T04:42:33.942Z,53.10
2018-07-01T04:45:02.654Z,53.50
2018-07-01T04:47:31.370Z,53.40
2018-07-01T04:50:00.101Z,53.50
2018-07-01T04:52:28.824Z,53.60
2018-07-01T04:59:54.328Z,52.80
2018-07-01T05:02:23.059Z,53.80
2018-07-01T05:04:52.058Z,52.60
2018-07-01T05:07:20.791Z,52.30
2018-07-01T05:09:49.578Z,52.10
2018-07-01T05:12:18.285Z,52.00
2018-07-01T05:14:47.005Z,52.50
2018-07-01T05:17:15.754Z,51.90
2018-07-01T05:19:44.377Z,51.90
2018-07-01T05:22:13.072Z,52.10
2018-07-01T05:24:41.828Z,51.70
2018-07-01T05:27:10.579Z,51.10
2018-07-01T05:32:07.699Z,48.50
2018-07-01T05:34:36.437Z,44.90
2018-07-01T05:37:05.161Z,42.30
2018-07-01T05:39:33.837Z,40.10
2018-07-01T05:42:02.534Z,35.90
2018-07-01T05:44:31.278Z,33.70
2018-07-01T05:49:28.445Z,30.70
2018-07-01T05:51:57.178Z,28.30
2018-07-01T05:54:25.922Z,28.90
2018-07-01T05:59:23.134Z,24.50
2018-07-01T06:01:51.894Z,23.80
2018-07-01T06:04:20.594Z,23.90
2018-07-01T06:06:49.289Z,23.60
2018-07-01T06:09:18.056Z,22.70
2018-07-01T06:11:46.784Z,22.30
2018-07-01T06:14:15.508Z,22.20
2018-07-01T06:16:44.280Z,21.50
2018-07-01T06:19:12.898Z,22.20
2018-07-01T06:21:41.646Z,22.40
2018-07-01T06:24:10.375Z,22.50
2018-07-01T06:29:07.525Z,22.70
2018-07-01T06:34:04.665Z,20.00
2018-07-01T06:36:33.398Z,20.30
2018-07-01T06:39:02.074Z,19.40
2018-07-01T06:41:30.789Z,18.90
2018-07-01T06:43:59.506Z,18.80
2018-07-01T06:46:28.457Z,17.20
2018-07-01T06:48:57.159Z,16.80
2018-07-01T06:51:25.842Z,16.00
2018-07-01T06:53:54.549Z,16.10
2018-07-01T06:56:23.256Z,15.40
2018-07-01T06:58:52.249Z,14.90
2018-07-01T07:03:49.327Z,15.20
2018-07-01T07:08:46.455Z,16.30
2018-07-01T07:11:15.194Z,16.40
2018-07-01T07:13:43.899Z,16.80
2018-07-01T07:16:12.675Z,16.20
2018-07-01T07:18:41.340Z,15.00
2018-07-01T07:23:38.427Z,15.50
2018-07-01T07:26:07.116Z,14.30
2018-07-01T07:28:35.799Z,14.30
2018-07-01T07:31:04.543Z,15.20
2018-07-01T07:33:33.226Z,15.70
2018-07-01T07:36:01.957Z,15.50
2018-07-01T07:38:30.648Z,15.80
2018-07-01T07:40:59.345Z,14.90
2018-07-01T07:43:28.081Z,14.60
2018-07-01T07:45:57.063Z,14.50
2018-07-01T07:48:25.775Z,14.50
2018-07-01T07:53:22.911Z,14.30
2018-07-01T07:55:51.657Z,14.40
2018-07-01T07:58:20.374Z,12.70
2018-07-01T08:00:49.082Z,12.40
2018-07-01T08:03:17.800Z,12.20
2018-07-01T08:05:46.525Z,11.80
2018-07-01T08:08:15.273Z,12.20
2018-07-01T08:15:40.901Z,13.10
2018-07-01T08:18:09.606Z,12.30
2018-07-01T08:25:35.096Z,11.80
2018-07-01T08:30:32.265Z,11.50
2018-07-01T08:33:00.961Z,11.90
2018-07-01T08:37:58.051Z,10.90
2018-07-01T08:47:52.046Z,11.60
2018-07-01T08:50:20.756Z,11.80
2018-07-01T08:52:49.563Z,11.60
2018-07-01T08:55:18.217Z,11.70
2018-07-01T08:57:46.922Z,11.80
2018-07-01T09:00:15.639Z,12.20
2018-07-01T09:02:44.402Z,11.70
2018-07-01T09:05:13.133Z,11.90
2018-07-01T09:07:41.805Z,12.30
2018-07-01T09:10:10.553Z,12.10
2018-07-01T09:12:39.305Z,12.00
2018-07-01T09:15:07.968Z,11.30
2018-07-01T09:17:36.715Z,11.20
2018-07-01T09:20:05.444Z,10.90
2018-07-01T09:22:34.163Z,10.40
2018-07-01T09:25:02.900Z,10.80
2018-07-01T09:27:31.604Z,9.60
2018-07-01T09:30:01.483Z,9.40
2018-07-01T09:32:30.938Z,9.20
2018-07-01T09:34:59.868Z,8.90
2018-07-01T09:37:28.642Z,8.80
2018-07-01T09:39:57.346Z,8.80
2018-07-01T09:42:26.079Z,8.90
2018-07-01T09:44:54.801Z,8.20
2018-07-01T09:47:23.543Z,8.20
2018-07-01T09:49:52.247Z,8.50
2018-07-01T09:52:20.977Z,8.70
2018-07-01T09:54:49.714Z,9.20
2018-07-01T09:57:18.418Z,9.70
2018-07-01T09:59:47.137Z,10.10
2018-07-01T10:02:15.801Z,10.20
2018-07-01T10:04:44.523Z,10.20
2018-07-01T10:07:13.239Z,10.20
2018-07-01T10:09:41.996Z,10.40
2018-07-01T10:19:36.136Z,10.60
2018-07-01T10:24:33.258Z,10.40
2018-07-01T10:27:01.975Z,10.20
2018-07-01T10:29:30.719Z,11.00
2018-07-01T10:31:59.488Z,11.20
2018-07-01T10:34:28.199Z,11.40
2018-07-01T10:36:56.925Z,11.30
2018-07-01T10:39:25.667Z,11.80
2018-07-01T10:41:54.410Z,11.10
2018-07-01T10:44:23.074Z,11.20
2018-07-01T10:46:51.778Z,11.30
2018-07-01T10:49:20.459Z,12.00
2018-07-01T10:51:49.170Z,12.20
2018-07-01T10:59:15.287Z,13.40
2018-07-01T11:01:43.992Z,14.20
2018-07-01T11:04:12.677Z,14.30
2018-07-01T11:06:41.396Z,14.60
2018-07-01T11:09:11.662Z,14.70
2018-07-01T11:11:40.404Z,15.10
2018-07-01T11:14:09.066Z,14.30
2018-07-01T11:16:37.760Z,14.20
2018-07-01T11:24:03.297Z,14.40
2018-07-01T11:31:28.802Z,15.50
2018-07-01T11:33:57.523Z,15.60
2018-07-01T11:36:26.239Z,15.80
2018-07-01T11:38:54.958Z,16.20
2018-07-01T11:41:23.666Z,16.30
2018-07-01T11:43:52.351Z,16.20
2018-07-01T11:46:21.065Z,17.10
2018-07-01T11:48:49.784Z,16.90
2018-07-01T11:51:18.763Z,17.00
2018-07-01T11:53:47.494Z,17.10
2018-07-01T11:56:16.201Z,16.70
2018-07-01T11:58:44.909Z,17.50
2018-07-01T12:08:39.602Z,18.00
2018-07-01T12:11:08.297Z,18.40
2018-07-01T12:13:37.006Z,18.40
2018-07-01T12:16:05.698Z,18.40
2018-07-01T12:18:34.483Z,18.20
2018-07-01T12:21:03.186Z,18.40
2018-07-01T12:26:00.298Z,18.30
2018-07-01T12:28:29.011Z,18.40
2018-07-01T12:30:57.715Z,18.00
2018-07-01T12:33:26.440Z,18.00
2018-07-01T12:35:55.172Z,18.70
2018-07-01T12:38:23.936Z,17.90
2018-07-01T12:40:52.645Z,18.60
2018-07-01T12:43:21.313Z,18.70
2018-07-01T12:45:50.030Z,18.10
2018-07-01T12:50:47.181Z,19.00
2018-07-01T12:53:15.866Z,19.30
2018-07-01T12:55:44.552Z,19.80
2018-07-01T12:58:13.327Z,19.70
2018-07-01T13:00:42.031Z,19.40
2018-07-01T13:08:07.619Z,20.00
2018-07-01T13:10:36.689Z,20.40
2018-07-01T13:13:05.438Z,20.60
2018-07-01T13:15:34.123Z,20.80
2018-07-01T13:18:02.806Z,20.30
2018-07-01T13:20:31.490Z,20.00
2018-07-01T13:23:00.190Z,19.80
2018-07-01T13:25:28.876Z,19.90
2018-07-01T13:27:57.578Z,20.40
2018-07-01T13:30:26.260Z,20.80
2018-07-01T13:32:55.017Z,21.00
2018-07-01T13:35:23.682Z,20.10
2018-07-01T13:37:52.385Z,20.50
2018-07-01T13:40:21.094Z,21.00
2018-07-01T13:42:49.781Z,20.40
2018-07-01T13:47:46.858Z,20.70
2018-07-01T13:50:15.576Z,20.60
2018-07-01T13:55:12.686Z,21.00
2018-07-01T13:57:41.452Z,21.40
2018-07-01T14:00:10.251Z,21.40
2018-07-01T14:02:38.970Z,21.40
2018-07-01T14:05:07.717Z,21.50
2018-07-01T14:07:36.426Z,21.50
2018-07-01T14:10:05.337Z,21.40
2018-07-01T14:15:02.726Z,21.70
2018-07-01T14:17:31.519Z,21.50
2018-07-01T14:22:28.533Z,22.00
2018-07-01T14:24:57.194Z,22.10
2018-07-01T14:27:25.911Z,22.00
2018-07-01T14:29:54.699Z,21.80
2018-07-01T14:32:23.369Z,21.40
2018-07-01T14:34:52.074Z,21.90
2018-07-01T14:37:20.831Z,22.00
2018-07-01T14:39:49.525Z,21.70
2018-07-01T14:42:18.267Z,21.80
2018-07-01T14:44:46.971Z,21.80
2018-07-01T14:49:44.110Z,22.00
2018-07-01T14:52:13.003Z,21.60
2018-07-01T14:54:41.721Z,21.90
2018-07-01T14:57:10.430Z,21.90
2018-07-01T14:59:39.493Z,22.10
2018-07-01T15:02:08.280Z,22.20
2018-07-01T15:07:05.473Z,22.80
2018-07-01T15:09:34.161Z,22.90
2018-07-01T15:16:59.718Z,22.60
2018-07-01T15:19:28.605Z,22.50
2018-07-01T15:21:57.289Z,22.70
2018-07-01T15:24:26.014Z,22.50
2018-07-01T15:26:54.729Z,22.70
2018-07-01T15:29:23.422Z,22.90
2018-07-01T15:31:52.140Z,22.40
2018-07-01T15:36:49.244Z,23.00
2018-07-01T15:39:17.958Z,23.00
2018-07-01T15:41:46.649Z,23.20
2018-07-01T15:44:15.526Z,23.40
2018-07-01T15:49:12.665Z,23.30
2018-07-01T15:51:41.393Z,23.50
2018-07-01T15:54:10.082Z,23.80
2018-07-01T15:59:07.754Z,24.00
2018-07-01T16:06:33.427Z,24.10
2018-07-01T16:09:02.148Z,24.00
2018-07-01T16:11:30.858Z,24.10
2018-07-01T16:13:59.545Z,24.10
2018-07-01T16:16:28.354Z,23.70
2018-07-01T16:18:57.033Z,23.70
2018-07-01T16:23:54.131Z,24.60
2018-07-01T16:26:28.254Z,24.60
2018-07-01T16:29:00.529Z,24.20
2018-07-01T16:31:30.475Z,24.20
2018-07-01T16:33:59.215Z,24.70
2018-07-01T16:36:29.175Z,24.90
2018-07-01T16:38:57.928Z,24.60
2018-07-01T16:41:26.845Z,25.10
2018-07-01T16:43:55.978Z,24.90
2018-07-01T16:48:53.071Z,24.10
2018-07-01T16:51:21.849Z,24.30
2018-07-01T16:56:18.906Z,24.50
2018-07-01T16:58:47.596Z,24.50
2018-07-01T17:01:16.277Z,24.40
2018-07-01T17:03:44.951Z,24.80
2018-07-01T17:08:42.998Z,24.70
2018-07-01T17:11:11.769Z,24.80
2018-07-01T17:13:40.453Z,25.20
2018-07-01T17:16:09.165Z,25.00
2018-07-01T17:18:38.353Z,24.90
2018-07-01T17:21:07.295Z,24.90
2018-07-01T17:26:04.397Z,25.20
2018-07-01T17:28:33.116Z,25.30
2018-07-01T17:31:07.288Z,24.90
2018-07-01T17:36:05.295Z,24.80
2018-07-01T17:41:05.918Z,25.00
2018-07-01T17:43:34.613Z,24.90
2018-07-01T17:46:03.344Z,25.00
2018-07-01T17:48:32.111Z,24.80
2018-07-01T17:51:00.921Z,25.00
2018-07-01T17:53:41.209Z,24.90
2018-07-01T17:56:09.837Z,24.40
2018-07-01T17:58:38.545Z,25.30
2018-07-01T18:01:07.309Z,25.20
2018-07-01T18:03:36.000Z,25.10
2018-07-01T18:06:04.989Z,25.00
2018-07-01T18:08:33.697Z,25.30
2018-07-01T18:11:02.378Z,25.50
2018-07-01T18:13:31.059Z,25.60
2018-07-01T18:15:59.779Z,25.80
2018-07-01T18:18:28.497Z,25.80
2018-07-01T18:20:57.209Z,25.80
2018-07-01T18:23:53.707Z,26.00
2018-07-01T18:28:34.107Z,25.70
2018-07-01T18:33:20.929Z,27.00
2018-07-01T18:35:49.630Z,26.20
2018-07-01T18:38:18.362Z,26.10
2018-07-01T18:40:47.624Z,26.10
2018-07-01T18:43:15.786Z,26.20
2018-07-01T18:45:44.513Z,26.20
2018-07-01T18:48:13.206Z,26.20
2018-07-01T18:53:10.416Z,26.30
2018-07-01T18:55:39.109Z,26.60
2018-07-01T18:58:07.879Z,26.60
2018-07-01T19:05:33.379Z,26.80
2018-07-01T19:08:02.130Z,26.90
2018-07-01T19:10:30.885Z,27.40
2018-07-01T19:12:59.689Z,27.50
2018-07-01T19:15:28.428Z,27.70
2018-07-01T19:17:57.178Z,27.60
2018-07-01T19:20:25.897Z,27.70
2018-07-01T19:22:54.706Z,27.70
2018-07-01T19:25:23.399Z,27.80
2018-07-01T19:27:52.107Z,27.80
2018-07-01T19:30:20.818Z,28.00
2018-07-01T19:32:49.549Z,28.10
2018-07-01T19:35:18.263Z,28.40
2018-07-01T19:40:15.414Z,28.50
2018-07-01T19:45:12.509Z,28.70
2018-07-01T19:47:41.238Z,28.60
2018-07-01T19:50:10.940Z,28.80
2018-07-01T19:52:39.829Z,28.90
2018-07-01T19:55:08.722Z,29.00
2018-07-01T19:57:37.508Z,29.10
2018-07-01T20:00:06.611Z,29.30
2018-07-01T20:02:35.350Z,29.20
2018-07-01T20:05:04.112Z,29.40
2018-07-01T20:07:32.794Z,29.60
2018-07-01T20:10:01.495Z,29.70
2018-07-01T20:17:26.995Z,30.30
2018-07-01T20:19:55.723Z,29.90
2018-07-01T20:22:24.423Z,30.10
2018-07-01T20:27:21.498Z,30.80
2018-07-01T20:29:50.199Z,30.80
2018-07-01T20:32:18.883Z,31.00
2018-07-01T20:34:47.622Z,31.20
2018-07-01T20:37:16.285Z,31.30
2018-07-01T20:39:44.969Z,31.40
2018-07-01T20:42:13.668Z,31.50
2018-07-01T20:44:42.347Z,31.70
2018-07-01T20:47:11.033Z,31.90
2018-07-01T20:49:39.754Z,32.00
2018-07-01T20:52:08.473Z,32.20
2018-07-01T20:54:37.152Z,32.30
2018-07-01T20:57:05.857Z,32.40
2018-07-01T20:59:34.558Z,32.50
2018-07-01T21:02:03.226Z,32.70
2018-07-01T21:04:31.937Z,32.80
2018-07-01T21:07:00.606Z,33.00
2018-07-01T21:09:29.324Z,33.10
2018-07-01T21:11:57.998Z,33.30
2018-07-01T21:14:26.725Z,33.50
2018-07-01T21:19:23.790Z,33.70
2018-07-01T21:21:52.497Z,33.70
2018-07-01T21:26:49.566Z,34.00
2018-07-01T21:29:18.310Z,34.20
2018-07-01T21:31:47.628Z,34.30
2018-07-01T21:34:16.326Z,34.50
2018-07-01T21:39:13.673Z,35.10
2018-07-01T21:44:11.628Z,35.60
2018-07-01T21:46:40.354Z,35.70
2018-07-01T21:49:09.414Z,35.80
2018-07-01T21:51:38.421Z,35.90
2018-07-01T21:54:07.175Z,36.10
2018-07-01T21:56:35.838Z,36.40
2018-07-01T21:59:04.554Z,36.80
2018-07-01T22:01:33.231Z,37.00
2018-07-01T22:04:01.961Z,37.20
2018-07-01T22:06:36.051Z,37.50
2018-07-01T22:09:06.744Z,37.80
2018-07-01T22:11:48.189Z,38.10
2018-07-01T22:14:22.227Z,38.30
2018-07-01T22:16:50.923Z,39.10
2018-07-01T22:19:20.093Z,38.80
2018-07-01T22:21:49.999Z,39.30
2018-07-01T22:24:18.689Z,39.60
2018-07-01T22:26:47.390Z,39.90
2018-07-01T22:29:16.864Z,40.50
2018-07-01T22:31:45.546Z,40.70
2018-07-01T22:34:15.488Z,41.10
2018-07-01T22:39:25.862Z,42.60
2018-07-01T22:41:55.432Z,42.20
2018-07-01T22:44:24.147Z,42.50
2018-07-01T22:46:53.429Z,43.30
2018-07-01T22:49:22.144Z,42.90
2018-07-01T22:51:50.878Z,43.10
2018-07-01T22:54:19.589Z,43.30
2018-07-01T22:56:48.314Z,43.50
2018-07-01T23:03:00.030Z,43.80
2018-07-01T23:05:29.966Z,44.00
2018-07-01T23:07:58.678Z,44.00
2018-07-01T23:10:28.102Z,44.20
2018-07-01T23:12:57.508Z,44.30
2018-07-01T23:15:26.228Z,44.30
2018-07-01T23:22:51.816Z,44.50
2018-07-01T23:25:20.522Z,44.50
2018-07-01T23:27:49.221Z,44.50
2018-07-01T23:30:17.936Z,44.50
2018-07-01T23:32:47.284Z,44.50
2018-07-01T23:35:16.056Z,44.60
2018-07-01T23:37:45.363Z,44.40
2018-07-01T23:40:14.070Z,44.60
2018-07-01T23:42:43.088Z,44.60
2018-07-01T23:45:13.174Z,44.80
2018-07-01T23:47:42.000Z,44.40
2018-07-01T23:50:10.725Z,44.90
2018-07-01T23:52:39.509Z,44.70
2018-07-01T23:55:08.743Z,44.60
2018-07-01T23:57:37.434Z,45.30
